Abdullah Unai

Скаут - Galatasaray
20 Ноя 2027
Суббота
Продолжить

Характер

Адаптивность (14) Амбиции (19) Скандальность (3) Верность (18) Стрессоустойчивость (13) Профессионализм (3) Благородство (16) Темперамент (8)

Профиль

Стиль управления Демократичный
Лицензия Национальная B
Решительность 12
Управление людьми 13
Мотивация 11
Дисциплина 9
Удовлетворённость
100%
Усталость
0%
Должность Скаут
Зарплата 44.8K в нед.
Контракт 14.03.2030

Производительность

Поведение Хорошее
Эффективность тренировок
66%
Развитие игроков
70%
Профилактика травм
60%
Тактическая реализация
50%

Недавние события

Участвовал в селекционном совещании только что
Рекомендовал трансферную цель только что
Рекомендовал трансферную цель только что
Рекомендовал трансферную цель только что
Рекомендовал трансферную цель 7 дн. назад
Рекомендовал трансферную цель 7 дн. назад
Рекомендовал трансферную цель 7 дн. назад
Рекомендовал трансферную цель 7 дн. назад

Текущее наблюдение

139
Игрок Клуб Статус Способность Уверенность Наблюдений Последнее наблюдение Последний голос
Barış Alper Yılmaz Porto Активный 147 / 149 40% 1 27.07.2027 -
John McGinn Aston Villa Активный 156 / 150 40% 1 27.07.2027 -
Jarrod Bowen West Ham United Активный 154 / 156 40% 1 27.07.2027 -
Cenk Tosun Kasimpasa Активный 110 / 113 76% 1 12.07.2027 За
Wagner Pina Trabzonspor Активный 126 / 133 76% 1 05.07.2027 За
Ollie Watkins Al-Hilal Активный 162 / 153 40% 7 28.06.2027 -
Nico Paz Nacional Активный 155 / 166 40% 1 28.06.2027 -
James Garner Everton Активный 151 / 151 40% 11 24.06.2027 -
Khéphren Thuram Juventus Активный 162 / 159 40% 6 24.06.2027 -
Carlos Augusto Inter Активный 153 / 152 40% 1 24.06.2027 -
Adam Wharton Crystal Palace Активный 151 / 153 40% 15 22.06.2027 -
Ryan Sessegnon Fulham Активный 144 / 149 40% 4 22.06.2027 -
Jean-Philippe Mateta Crystal Palace Активный 152 / 153 40% 1 14.06.2027 -
Serge Gnabry Bayern Munich Упущен 164 / 157 40% 1 14.06.2027 -
Abbosbek Fayzullayev Basaksehir Активный 131 / 127 76% 1 03.06.2027 За
Ernest Muçi Trabzonspor Упущен 138 / 135 76% 1 02.06.2027 -
Mike Maignan AC Milan Активный 164 / 163 40% 1 01.06.2027 -
Anatolii Trubin Tottenham Активный 158 / 158 40% 1 01.06.2027 -
Curtis Jones Inter Активный 156 / 155 40% 3 30.05.2027 -
Ethan Ampadu Leeds United Активный 148 / 147 40% 3 30.05.2027 -
Evan N'Dicka AS Roma Активный 160 / 153 40% 3 30.05.2027 -
Nobel Mendy Hull City Активный 136 / 136 40% 2 30.05.2027 -
Shea Charles Southampton Активный 132 / 135 40% 1 30.05.2027 -
Kenny Tete Fulham Активный 140 / 140 40% 7 29.05.2027 -
Yehor Yarmoliuk Brentford Активный 152 / 152 40% 8 26.05.2027 -
Alex Scott Bournemouth Активный 152 / 154 40% 11 25.05.2027 -
Nordi Mukiele Sunderland Активный 150 / 144 40% 3 25.05.2027 -
Amadou Onana Newcastle United Активный 154 / 158 40% 13 23.05.2027 -
Nathan Collins Brentford Активный 146 / 146 40% 7 23.05.2027 -
Nico O'Reilly Manchester City Активный 149 / 154 40% 2 23.05.2027 -
Mats Wieffer Brighton Активный 148 / 149 40% 10 22.05.2027 -
Quinten Timber Crystal Palace Активный 153 / 151 40% 13 22.05.2027 -
Tyrell Malacia Derby County Активный 140 / 133 40% 2 22.05.2027 -
Nico González Newcastle United Активный 166 / 158 40% 11 19.05.2027 -
Adrien Truffert Bournemouth Активный 149 / 153 40% 9 17.05.2027 -
Matty Cash Aston Villa Активный 154 / 152 40% 3 17.05.2027 -
Jarrad Branthwaite Everton Активный 150 / 152 40% 5 16.05.2027 -
Rico Lewis Manchester City Активный 148 / 152 40% 1 16.05.2027 -
Juanlu Bournemouth Активный 151 / 148 40% 5 15.05.2027 -
Roger François Udinese Активный 148 / 146 40% 3 15.05.2027 -
Callum Doyle Wrexham Активный 130 / 134 40% 2 15.05.2027 -
Tim Iroegbunam Hull City Активный 137 / 138 40% 2 15.05.2027 -
Maxence Lacroix Chelsea Активный 155 / 148 40% 6 13.05.2027 -
Anton Stach Leeds United Активный 150 / 148 40% 8 12.05.2027 -
Xaver Schlager Nottingham Forest Активный 156 / 151 40% 7 11.05.2027 -
Manu Koné AS Roma Активный 165 / 163 40% 3 11.05.2027 -
Tyler Adams Bournemouth Активный 150 / 152 40% 8 08.05.2027 -
André Wolverhampton Активный 147 / 147 40% 9 07.05.2027 -
Yasin Ayari Brighton Активный 141 / 148 40% 3 05.05.2027 -
Lewis Hall Newcastle United Активный 148 / 149 40% 3 02.05.2027 -
Alfie Gilchrist West Bromwich Albion Активный 122 / 128 40% 1 02.05.2027 -
Jorrel Hato Chelsea Активный 150 / 149 40% 5 01.05.2027 -
Manuel Locatelli Juventus Активный 150 / 150 40% 1 29.04.2027 -
Murillo Nottingham Forest Активный 154 / 154 40% 1 28.04.2027 -
Igor Burnley Активный 145 / 140 40% 4 23.04.2027 -
Orkun Kökçü Bournemouth Активный 152 / 145 40% 9 21.04.2027 -
Oumar Solet Udinese Активный 144 / 149 40% 1 20.04.2027 -
Leon Goretzka Aston Villa Активный 157 / 155 40% 6 18.04.2027 -
Calvin Bassey Fulham Активный 152 / 147 40% 3 15.04.2027 -
Edoardo Bove Watford Активный 127 / 134 40% 1 13.04.2027 -
Benjamin White Arsenal Активный 155 / 155 40% 2 11.04.2027 -
Ferdi Kadıoğlu Brighton Активный 149 / 151 40% 10 09.04.2027 -
Olivier Boscagli Brighton Активный 149 / 142 40% 2 08.04.2027 -
Saša Lukić Ipswich Town Активный 144 / 143 40% 3 04.04.2027 -
Ian Maatsen Aston Villa Активный 148 / 151 40% 3 22.03.2027 -
Daniel Muñoz Nottingham Forest Активный 144 / 151 40% 1 22.03.2027 -
Ainsley Maitland-Niles Everton Активный 144 / 135 40% 1 20.03.2027 -
Michael Kayode Brentford Активный 148 / 149 40% 1 19.03.2027 -
Pedro Porro Tottenham Активный 143 / 145 40% 5 14.03.2027 -
Ramón Terrats Getafe Активный 140 / 141 40% 3 14.03.2027 -
Florentino Luís Ipswich Town Активный 144 / 145 40% 1 11.03.2027 -
Bosun Lawal Stoke City Активный 129 / 125 40% 1 07.03.2027 -
Óscar Mingueza Crystal Palace Активный 148 / 147 40% 7 01.03.2027 -
Aaron Hickey Brentford Активный 144 / 149 40% 1 27.02.2027 -
António Silva Bournemouth Активный 142 / 146 40% 2 23.02.2027 -
Sven Botman Newcastle United Активный 157 / 162 40% 5 18.02.2027 -
Willian Pacho Juventus Активный 162 / 167 40% 1 18.02.2027 -
Noussair Mazraoui Manchester United Активный 151 / 148 40% 1 15.02.2027 -
Jan Paul van Hecke Tottenham Активный 153 / 152 40% 4 13.02.2027 -
Dodo Fiorentina Активный 153 / 147 40% 1 10.02.2027 -
Alessandro Bastoni Inter Активный 165 / 165 40% 1 28.01.2027 -
Emile Smith Rowe Fulham Активный 155 / 147 40% 2 31.12.2026 -
James Maddison Tottenham Активный 155 / 160 40% 3 31.12.2026 -
Bruno Guimarães Arsenal Активный 168 / 169 40% 3 28.12.2026 -
Carlos Vicente Udinese Активный 141 / 135 40% 3 28.12.2026 -
Thiago Almada Fiorentina Активный 154 / 143 40% 4 28.12.2026 -
Julio Enciso Ipswich Town Активный 144 / 144 40% 3 24.12.2026 -
Randal Kolo Muani Juventus Активный 147 / 141 40% 3 24.12.2026 -
Dango Ouattara Brentford Активный 151 / 149 40% 2 24.12.2026 -
Diogo Dalot Manchester United Активный 142 / 145 40% 2 24.12.2026 -
Liam Delap Nottingham Forest Активный 139 / 147 40% 2 22.12.2026 -
Luiz Henrique VfB Stuttgart Активный 140 / 141 40% 3 22.12.2026 -
Gonzalo Fulham Активный 141 / 148 40% 1 22.12.2026 -
Kiernan Dewsbury-Hall Everton Активный 149 / 143 40% 1 21.12.2026 -
Raoul Bellanova Atalanta Активный 153 / 144 40% 1 18.12.2026 -
Federico Chiesa Tottenham Активный 155 / 160 40% 1 16.12.2026 -
Ryan Gravenberch Liverpool Активный 163 / 162 40% 3 15.12.2026 -
Tino Livramento Newcastle United Активный 149 / 152 40% 1 15.12.2026 -
Alexis Mac Allister Liverpool Активный 161 / 158 40% 4 11.12.2026 -
Mason Mount Manchester United Активный 157 / 157 40% 3 08.12.2026 -
Kevin Schade Brentford Активный 145 / 144 40% 4 07.12.2026 -
Savinho Tottenham Активный 156 / 160 40% 3 07.12.2026 -
Jacob Ramsey Newcastle United Активный 146 / 146 40% 2 03.12.2026 -
Ángel Correa River Plate Упущен 147 / 143 40% 1 03.12.2026 -
Wesley Fofana Chelsea Активный 164 / 158 40% 2 01.12.2026 -
Yankuba Minteh Brighton Активный 143 / 155 40% 1 27.11.2026 -
Ismaïla Sarr Crystal Palace Активный 148 / 153 40% 2 20.11.2026 -
Rodolfo Arteaga Liverpool Активный 162 / 164 40% 1 15.11.2026 -
Georginio Rutter Manchester City Активный 152 / 147 40% 1 06.11.2026 -
Brais Méndez Columbus Crew Упущен 141 / 141 40% 3 04.11.2026 -
Oleksandr Zinchenko Lech Активный 154 / 144 40% 7 03.11.2026 -
Nino Zenit Активный 143 / 140 40% 2 02.11.2026 -
Omar Al Shamsi CSKA Moscow Активный 140 / 139 40% 1 02.11.2026 -
Ehsan Beiranvand Padideh Активный 148 / 133 40% 3 31.10.2026 -
Wendel Zenit Активный 146 / 136 40% 6 31.10.2026 -
Rúben Neves Al-Hilal Активный 160 / 145 40% 8 30.10.2026 -
Sergej Milinković-Savić Al-Hilal Активный 161 / 154 40% 8 30.10.2026 -
Tijjani Reijnders Al-Qadisiyah Активный 148 / 164 40% 5 30.10.2026 -
Marc Pubill Atlético Madrid Активный 140 / 150 40% 2 30.10.2026 -
Ritsu Doan Gamba Osaka Активный 141 / 139 40% 5 28.10.2026 -
Rasmus Kristensen FC Midtjylland Активный 145 / 141 40% 4 24.10.2026 -
Théo Hernández Al-Hilal Активный 154 / 151 40% 3 23.10.2026 -
Oscar Al-Taawoun Активный 154 / 151 40% 1 23.10.2026 -
Azzedine Ounahi Panathinaikos Активный 143 / 134 40% 3 22.10.2026 -
Galeno Al-Ahli Активный 152 / 147 40% 2 21.10.2026 -
Petar Sučić Inter Активный 148 / 145 40% 3 21.10.2026 -
Otávio Al-Qadisiyah Активный 149 / 145 40% 2 14.10.2026 -
Yves Bissouma Tottenham Активный 139 / 147 40% 3 05.10.2026 -
Adrian Dragusin CFR Cluj Активный 147 / 142 40% 1 30.09.2026 -
Juan David Cabal Juventus Активный 146 / 139 40% 3 28.09.2026 -
Joe Rodon Leeds United Активный 144 / 135 40% 1 28.09.2026 -
Malcom Al Jazira Активный 137 / 153 40% 2 20.09.2026 -
Fabinho Trabzonspor Активный 133 / 140 40% 1 19.09.2026 -
Steven Bergwijn Al-Ittihad Активный 139 / 140 40% 2 15.09.2026 -
Jerome Opoku Basaksehir Активный 122 / 130 69% 1 24.08.2026 За
Alasana Yirajang Slovan Bratislava Активный 110 / 120 40% 1 19.08.2026 -
Enis Bardhi Konyaspor Упущен 134 / 132 69% 1 17.08.2026 -
Paul Onuachu Активный 124 / 134 69% 1 03.08.2026 За
Álex Remiro Real Sociedad Активный 148 / 146 40% 1 01.08.2026 -